Time;durP1;ratioP1;P1;durP2;ratioP2;P2;SDS_P1;SDS_P2;PMS_P1;PMS_P2;Temp;Humidity;BMP_temperature;BMP_pressure;BME280_temperature;BME280_humidity;BME280_pressure;Samples;Min_cycle;Max_cycle;Signal;HPM_P1;HPM_P2
2021/12/10 00:01:55;;;;;;;160.50;61.50;;;;;;;6.31;56.12;99737.56;5091616;28;20132;-71
2021/12/10 00:04:29;;;;;;;151.27;60.47;;;;;;;5.81;57.00;99732.06;5075877;28;20067;-72
2021/12/10 00:07:00;;;;;;;161.57;63.25;;;;;;;5.97;56.75;99733.47;5094216;28;20072;-71
2021/12/10 00:09:35;;;;;;;164.60;63.67;;;;;;;6.06;56.75;99722.09;5093513;28;20071;-71
2021/12/10 00:12:27;;;;;;;166.52;62.70;;;;;;;6.14;56.58;99717.84;5091863;28;20144;-73
2021/12/10 00:14:55;;;;;;;166.55;61.90;;;;;;;6.28;56.49;99724.59;5092271;28;20068;-71
2021/12/10 00:17:23;;;;;;;166.98;63.33;;;;;;;6.30;56.41;99716.50;5091869;28;20143;-71
2021/12/10 00:19:54;;;;;;;163.88;60.08;;;;;;;6.17;56.51;99722.88;5092495;28;20058;-71
2021/12/10 00:22:29;;;;;;;175.77;62.25;;;;;;;6.27;56.13;99716.75;5094180;28;20044;-71
2021/12/10 00:24:56;;;;;;;171.05;63.67;;;;;;;6.29;55.94;99714.84;5093477;28;20048;-71
2021/12/10 00:27:31;;;;;;;173.88;62.90;;;;;;;6.31;56.18;99713.75;5093343;28;20131;-71
2021/12/10 00:30:08;;;;;;;160.85;61.85;;;;;;;5.10;57.99;99715.03;5092931;28;20498;-71
2021/12/10 00:32:40;;;;;;;163.80;64.07;;;;;;;5.16;58.90;99712.75;5091537;28;20108;-71
2021/12/10 00:35:13;;;;;;;169.93;64.35;;;;;;;5.45;58.26;99710.34;5093138;28;20476;-71
2021/12/10 00:37:40;;;;;;;174.20;63.25;;;;;;;5.67;57.57;99719.16;5089125;28;20061;-71
2021/12/10 00:40:10;;;;;;;170.68;61.58;;;;;;;5.75;57.21;99713.22;5093278;28;20067;-71
2021/12/10 00:42:37;;;;;;;175.75;63.47;;;;;;;5.64;56.73;99711.47;5072388;28;20131;-71
2021/12/10 00:45:07;;;;;;;176.73;65.32;;;;;;;5.88;57.28;99721.81;5073422;28;20208;-72
2021/12/10 00:47:35;;;;;;;167.07;64.43;;;;;;;6.18;56.20;99713.13;5072654;28;20511;-72
2021/12/10 00:50:06;;;;;;;177.50;65.63;;;;;;;6.12;56.76;99703.03;5072798;28;20407;-71
2021/12/10 00:52:32;;;;;;;164.48;61.60;;;;;;;6.00;56.67;99698.81;5071577;28;20075;-71
2021/12/10 00:54:59;;;;;;;175.43;65.38;;;;;;;6.04;56.67;99694.94;5071870;28;20495;-72
2021/12/10 00:57:25;;;;;;;164.02;61.15;;;;;;;5.88;57.38;99693.53;5071540;28;20079;-71
2021/12/10 00:59:52;;;;;;;168.68;64.30;;;;;;;5.68;57.55;99689.09;5072284;28;20098;-72
2021/12/10 01:02:23;;;;;;;165.82;63.33;;;;;;;5.72;57.89;99693.19;5072292;28;20059;-72
2021/12/10 01:04:52;;;;;;;167.93;63.80;;;;;;;5.86;56.97;99692.84;5071839;28;20183;-71
2021/12/10 01:07:24;;;;;;;169.82;62.20;;;;;;;4.95;59.24;99683.63;5084169;28;20506;-71
2021/12/10 01:09:55;;;;;;;177.48;66.43;;;;;;;4.91;60.15;99687.47;5091587;28;20072;-71
2021/12/10 01:12:34;;;;;;;133.93;51.20;;;;;;;4.91;59.76;99684.81;5090810;28;20109;-71
2021/12/10 01:23:50;;;;;;;178.40;67.47;;;;;;;5.93;56.76;99669.41;5092288;28;20072;-73
2021/12/10 01:26:26;;;;;;;174.25;62.00;;;;;;;4.39;60.53;99667.84;5092063;28;20487;-71
2021/12/10 01:28:57;;;;;;;179.68;64.22;;;;;;;5.07;59.07;99649.25;5093911;28;20082;-71
2021/12/10 01:31:24;;;;;;;179.70;65.47;;;;;;;5.45;57.96;99651.38;5096127;28;20117;-72
2021/12/10 01:33:53;;;;;;;179.52;63.50;;;;;;;4.42;61.29;99641.22;5096127;28;20124;-73
2021/12/10 01:36:21;;;;;;;177.20;65.57;;;;;;;4.33;61.98;99630.56;5096093;28;20539;-72
2021/12/10 01:38:51;;;;;;;193.05;69.35;;;;;;;5.27;59.06;99622.03;5097695;28;20130;-71
2021/12/10 01:41:22;;;;;;;175.23;63.40;;;;;;;5.18;58.75;99617.50;5096615;28;20123;-72
2021/12/10 01:43:51;;;;;;;177.00;65.53;;;;;;;5.41;58.50;99612.97;5096846;28;20451;-71
2021/12/10 01:46:26;;;;;;;173.57;63.95;;;;;;;5.49;58.17;99615.78;5097020;28;20131;-73
2021/12/10 01:48:56;;;;;;;169.32;64.35;;;;;;;5.65;58.11;99620.63;5096703;28;20094;-71
2021/12/10 01:51:27;;;;;;;173.13;65.30;;;;;;;5.42;58.15;99620.75;5098095;28;20052;-71
2021/12/10 01:53:56;;;;;;;174.73;62.07;;;;;;;5.06;59.01;99619.38;5098141;28;20055;-72
2021/12/10 01:56:28;;;;;;;167.88;62.80;;;;;;;5.08;59.12;99619.22;5097725;28;20522;-72
2021/12/10 01:58:57;;;;;;;165.55;63.38;;;;;;;4.62;60.01;99613.25;5095805;28;20155;-72
2021/12/10 02:01:31;;;;;;;170.18;63.35;;;;;;;5.76;57.20;99603.84;5093902;28;20484;-72
2021/12/10 02:04:01;;;;;;;173.25;64.00;;;;;;;5.90;56.69;99599.03;5091225;28;20586;-72
2021/12/10 02:10:18;;;;;;;170.52;62.42;;;;;;;5.71;56.31;99576.00;5074120;28;20135;-72
2021/12/10 02:12:46;;;;;;;178.38;65.90;;;;;;;5.43;58.14;99580.13;5075284;28;20041;-71
2021/12/10 02:15:14;;;;;;;160.55;62.80;;;;;;;5.89;57.34;99575.38;5074982;28;20135;-71
2021/12/10 02:17:44;;;;;;;163.25;64.15;;;;;;;6.03;56.61;99566.28;5091241;28;20138;-71
2021/12/10 02:20:23;;;;;;;169.25;62.05;;;;;;;5.66;57.78;99574.72;5086515;28;20123;-72
2021/12/10 02:22:50;;;;;;;162.07;58.75;;;;;;;5.70;57.47;99573.47;5095732;28;20127;-72
2021/12/10 02:25:20;;;;;;;153.52;59.13;;;;;;;5.76;57.81;99565.03;5094585;28;20056;-72
2021/12/10 02:27:47;;;;;;;160.52;59.40;;;;;;;5.85;56.90;99560.72;5095615;28;20132;-72
2021/12/10 02:30:16;;;;;;;156.68;58.80;;;;;;;5.76;56.98;99562.38;5086269;28;20127;-72
2021/12/10 02:32:43;;;;;;;168.23;60.60;;;;;;;5.54;57.46;99554.59;5096697;28;20066;-72
2021/12/10 02:35:13;;;;;;;162.27;59.03;;;;;;;5.29;57.88;99551.38;5095231;28;20043;-72
2021/12/10 02:37:41;;;;;;;152.90;57.78;;;;;;;4.86;59.42;99554.97;5095265;28;20123;-72
2021/12/10 02:40:11;;;;;;;158.52;60.25;;;;;;;5.19;58.33;99550.47;5095361;28;20470;-71
2021/12/10 02:42:39;;;;;;;153.63;58.42;;;;;;;5.71;57.50;99552.22;5094886;28;20040;-72
2021/12/10 02:45:08;;;;;;;170.85;59.60;;;;;;;5.84;56.93;99548.50;5095879;28;20072;-72
2021/12/10 02:47:34;;;;;;;159.50;59.38;;;;;;;5.77;57.08;99540.25;5095854;28;20064;-72
2021/12/10 02:50:02;;;;;;;164.27;60.13;;;;;;;5.83;56.67;99545.00;5094569;28;20126;-72
2021/12/10 02:52:28;;;;;;;176.65;62.35;;;;;;;5.76;57.29;99540.41;5095195;28;20075;-72
2021/12/10 02:54:57;;;;;;;167.60;62.05;;;;;;;5.77;56.81;99529.66;5094364;28;20483;-72
2021/12/10 02:57:25;;;;;;;171.27;62.47;;;;;;;4.57;59.71;99532.75;5094892;28;20047;-72
2021/12/10 02:59:52;;;;;;;166.10;61.10;;;;;;;5.40;58.41;99522.28;5094714;28;20052;-72
2021/12/10 03:02:23;;;;;;;180.85;64.75;;;;;;;5.48;58.01;99525.09;5095172;28;20119;-72
2021/12/10 03:04:50;;;;;;;188.00;65.35;;;;;;;5.15;58.65;99518.22;5094809;28;20082;-72
2021/12/10 03:07:19;;;;;;;191.73;67.10;;;;;;;4.96;58.98;99515.44;5092666;28;20131;-72
2021/12/10 03:09:49;;;;;;;178.40;63.05;;;;;;;3.91;61.38;99520.44;5087048;28;20055;-72
2021/12/10 03:12:17;;;;;;;189.65;65.75;;;;;;;5.00;59.54;99507.13;5095241;28;20048;-72
2021/12/10 03:14:49;;;;;;;203.63;65.55;;;;;;;5.63;57.70;99500.94;5095241;28;20170;-72
2021/12/10 03:17:24;;;;;;;180.63;65.18;;;;;;;5.80;57.37;99500.31;5095622;28;20447;-73
2021/12/10 03:19:52;;;;;;;187.05;66.47;;;;;;;5.89;56.58;99496.88;5094746;28;20048;-72
2021/12/10 03:22:18;;;;;;;194.68;68.15;;;;;;;6.11;55.96;99487.06;5094754;28;20054;-71
2021/12/10 03:24:46;;;;;;;193.48;67.55;;;;;;;6.19;56.33;99489.88;5094627;28;20072;-72
2021/12/10 03:27:14;;;;;;;185.63;68.40;;;;;;;6.16;56.38;99477.75;5094539;28;20052;-72
2021/12/10 03:29:43;;;;;;;196.18;67.40;;;;;;;6.29;55.86;99477.50;5094405;28;20122;-71
2021/12/10 03:32:16;;;;;;;201.35;66.50;;;;;;;6.02;56.21;99475.50;5093773;28;20143;-72
2021/12/10 03:34:43;;;;;;;183.98;68.22;;;;;;;6.18;56.61;99465.22;5092790;28;20078;-71
2021/12/10 03:37:09;;;;;;;191.30;66.25;;;;;;;6.21;56.07;99466.78;5094441;28;20086;-71
2021/12/10 03:39:36;;;;;;;186.40;67.68;;;;;;;6.32;56.05;99468.44;5094454;28;20066;-71
2021/12/10 03:42:05;;;;;;;192.82;69.95;;;;;;;6.34;55.99;99469.13;5095249;28;20471;-72
2021/12/10 03:44:33;;;;;;;199.55;67.95;;;;;;;6.47;56.02;99456.47;5095303;28;20046;-72
2021/12/10 03:47:01;;;;;;;186.13;67.63;;;;;;;6.48;55.51;99454.66;5093992;28;20127;-71
2021/12/10 03:49:27;;;;;;;179.52;66.05;;;;;;;6.44;55.95;99448.78;5094241;28;20079;-73
2021/12/10 03:51:54;;;;;;;181.55;67.38;;;;;;;6.23;56.02;99446.28;5093398;28;20043;-74
2021/12/10 03:54:20;;;;;;;184.45;68.38;;;;;;;6.41;56.13;99439.34;5093705;28;20135;-74
2021/12/10 03:56:49;;;;;;;184.90;68.07;;;;;;;6.49;55.51;99436.00;5093241;28;20044;-73
2021/12/10 03:59:18;;;;;;;166.48;63.05;;;;;;;5.99;56.73;99440.53;5093386;28;20131;-73
2021/12/10 04:01:50;;;;;;;172.80;65.50;;;;;;;5.64;57.63;99445.28;5090285;28;20127;-73
2021/12/10 04:04:21;;;;;;;186.68;67.47;;;;;;;5.46;57.99;99444.25;5092569;28;20052;-73
2021/12/10 04:06:48;;;;;;;180.77;66.95;;;;;;;5.82;57.04;99437.56;5092898;28;20051;-72
2021/12/10 04:09:14;;;;;;;196.23;67.50;;;;;;;6.00;56.64;99440.41;5094327;28;20131;-72
2021/12/10 04:11:42;;;;;;;197.52;66.93;;;;;;;6.23;55.81;99438.34;5093502;28;20531;-72
2021/12/10 04:14:09;;;;;;;195.40;70.03;;;;;;;6.14;56.18;99431.25;5093140;28;20082;-72
2021/12/10 04:16:36;;;;;;;201.20;69.97;;;;;;;6.30;55.67;99426.22;5094324;28;20043;-72
2021/12/10 04:19:07;;;;;;;179.38;66.72;;;;;;;6.35;55.77;99426.66;5092853;28;20071;-72
2021/12/10 04:21:39;;;;;;;177.98;65.47;;;;;;;6.30;56.31;99433.34;5092771;28;20083;-72
2021/12/10 04:24:10;;;;;;;175.48;65.97;;;;;;;5.91;57.00;99426.16;5093843;28;20040;-73
2021/12/10 04:26:37;;;;;;;170.95;63.88;;;;;;;6.12;56.38;99433.19;5093276;28;20151;-73
2021/12/10 04:29:04;;;;;;;177.50;64.07;;;;;;;5.95;56.30;99432.88;5094027;28;20101;-72
2021/12/10 04:31:31;;;;;;;179.48;64.13;;;;;;;6.21;56.04;99431.53;5093728;28;20052;-72
2021/12/10 04:33:57;;;;;;;175.30;61.65;;;;;;;5.70;56.69;99441.28;5094695;28;20568;-73
2021/12/10 04:36:24;;;;;;;173.95;64.95;;;;;;;5.70;57.28;99434.19;5092878;28;20474;-72
2021/12/10 04:38:50;;;;;;;178.43;64.40;;;;;;;5.48;57.30;99435.22;5092803;28;20123;-72
2021/12/10 04:41:17;;;;;;;181.65;63.58;;;;;;;6.08;56.21;99434.44;5094223;28;20067;-72
2021/12/10 04:43:44;;;;;;;183.00;65.20;;;;;;;6.33;55.82;99439.19;5094018;28;20062;-72
2021/12/10 04:46:11;;;;;;;193.00;67.57;;;;;;;6.32;55.53;99442.81;5093490;28;20066;-72
2021/12/10 04:48:48;;;;;;;167.48;63.33;;;;;;;6.14;55.62;99436.53;5092962;28;20044;-72
2021/12/10 04:51:16;;;;;;;183.80;65.32;;;;;;;6.21;55.58;99444.78;5094015;28;20123;-72
2021/12/10 04:53:43;;;;;;;183.52;66.95;;;;;;;5.86;56.33;99443.41;5092242;28;20078;-72
2021/12/10 04:56:09;;;;;;;172.05;62.85;;;;;;;6.29;56.13;99440.44;5092705;28;20067;-72
2021/12/10 04:58:36;;;;;;;188.43;67.15;;;;;;;6.45;55.57;99431.13;5093094;28;20119;-72
2021/12/10 05:01:03;;;;;;;197.82;67.85;;;;;;;6.26;56.10;99438.06;5094384;28;20380;-72
2021/12/10 05:03:31;;;;;;;196.98;69.63;;;;;;;6.13;56.13;99434.84;5094823;28;20047;-72
2021/12/10 05:06:02;;;;;;;175.90;65.75;;;;;;;6.12;55.48;99446.41;5098354;28;20407;-72
2021/12/10 05:08:31;;;;;;;183.00;66.47;;;;;;;5.47;57.74;99446.78;5098963;28;20047;-72
2021/12/10 05:10:58;;;;;;;190.43;69.72;;;;;;;5.98;56.75;99431.78;5080313;28;20068;-72
2021/12/10 05:13:25;;;;;;;202.10;68.70;;;;;;;6.26;55.97;99432.78;5078801;28;20049;-72
2021/12/10 05:15:57;;;;;;;200.05;71.10;;;;;;;6.08;56.52;99426.50;5078339;28;20045;-72
2021/12/10 05:18:30;;;;;;;188.48;69.20;;;;;;;6.34;56.07;99426.78;5077547;28;20072;-71
2021/12/10 05:20:57;;;;;;;203.77;70.22;;;;;;;6.28;55.77;99416.78;5077078;28;20115;-72
2021/12/10 05:23:24;;;;;;;204.60;71.00;;;;;;;6.39;56.18;99420.09;5077831;28;20090;-72
2021/12/10 05:25:51;;;;;;;203.70;70.25;;;;;;;6.27;56.08;99415.09;5078293;28;20448;-72
2021/12/10 05:28:19;;;;;;;188.27;67.00;;;;;;;5.46;58.12;99409.91;5095910;28;20048;-72
2021/12/10 05:30:46;;;;;;;197.82;69.07;;;;;;;5.86;57.22;99411.69;5097077;28;20146;-72
2021/12/10 05:33:18;;;;;;;205.13;70.75;;;;;;;6.07;56.95;99408.97;5098295;28;20058;-72
2021/12/10 05:35:47;;;;;;;186.90;65.55;;;;;;;6.16;56.22;99397.53;5097780;28;20445;-72
2021/12/10 05:38:17;;;;;;;184.32;68.80;;;;;;;5.48;57.53;99408.81;5089371;28;20067;-72
2021/12/10 05:40:49;;;;;;;198.98;71.18;;;;;;;6.37;55.78;99406.19;5095660;28;20044;-72
2021/12/10 05:43:16;;;;;;;201.32;69.90;;;;;;;6.49;55.63;99401.59;5074652;28;20048;-73
2021/12/10 05:45:44;;;;;;;189.43;70.35;;;;;;;6.44;55.63;99393.22;5103900;28;20127;-72
2021/12/10 05:48:11;;;;;;;192.50;68.25;;;;;;;5.14;59.30;99394.19;5075529;28;20427;-72
2021/12/10 05:50:37;;;;;;;206.00;69.50;;;;;;;6.00;56.38;99394.63;5087096;28;20062;-71
2021/12/10 05:53:05;;;;;;;187.82;67.35;;;;;;;4.99;59.30;99391.09;5094908;28;20100;-71
2021/12/10 05:55:32;;;;;;;192.98;69.43;;;;;;;4.89;59.40;99400.75;5094938;28;20055;-71
2021/12/10 05:57:59;;;;;;;208.32;72.07;;;;;;;6.07;57.06;99388.63;5093589;28;20123;-71
2021/12/10 06:00:30;;;;;;;191.55;70.00;;;;;;;4.92;59.47;99389.94;5074439;28;20441;-71
2021/12/10 06:02:56;;;;;;;206.40;72.20;;;;;;;5.67;57.87;99386.03;5073338;28;20044;-71
2021/12/10 06:05:24;;;;;;;199.95;68.32;;;;;;;5.29;58.83;99384.94;5072619;28;20457;-71
2021/12/10 06:07:50;;;;;;;195.60;71.10;;;;;;;5.55;58.19;99381.84;5073270;28;20076;-71
2021/12/10 06:10:19;;;;;;;195.77;73.30;;;;;;;6.08;56.92;99373.59;5056758;28;20044;-72
2021/12/10 06:12:48;;;;;;;200.10;71.93;;;;;;;6.24;56.58;99378.34;5073542;28;20048;-71
2021/12/10 06:15:17;;;;;;;217.98;74.70;;;;;;;6.35;55.87;99379.03;5078063;28;20121;-72
2021/12/10 06:17:44;;;;;;;213.30;72.68;;;;;;;6.47;55.79;99374.41;5096399;28;20120;-72
2021/12/10 06:20:14;;;;;;;202.93;70.82;;;;;;;5.91;56.77;99380.38;5095042;28;20379;-72
2021/12/10 06:22:41;;;;;;;195.43;68.50;;;;;;;6.26;56.74;99382.50;5094989;28;20052;-72
2021/12/10 06:25:08;;;;;;;188.88;69.25;;;;;;;6.39;56.43;99369.81;5094490;28;20064;-72
2021/12/10 06:27:36;;;;;;;192.60;71.25;;;;;;;6.25;57.01;99372.91;5093708;28;20064;-72
2021/12/10 06:30:03;;;;;;;205.15;72.10;;;;;;;6.32;56.82;99375.81;5094002;28;20047;-73
2021/12/10 06:32:30;;;;;;;210.13;75.70;;;;;;;6.17;56.26;99370.94;5094188;28;20072;-72
2021/12/10 06:34:57;;;;;;;203.40;74.40;;;;;;;6.52;56.18;99369.53;5094911;28;20119;-72
2021/12/10 06:37:23;;;;;;;212.45;75.82;;;;;;;6.25;56.19;99362.31;5095028;28;20059;-72
2021/12/10 06:39:50;;;;;;;220.85;76.10;;;;;;;6.33;56.60;99367.72;5094011;28;20131;-72
2021/12/10 06:42:16;;;;;;;213.05;74.45;;;;;;;6.17;56.86;99367.47;5093825;28;20139;-71
2021/12/10 06:45:05;;;;;;;213.13;73.80;;;;;;;6.26;56.62;99361.31;5093248;28;20050;-71
2021/12/10 06:47:32;;;;;;;218.75;76.60;;;;;;;6.22;56.64;99365.22;5093437;28;20126;-72
2021/12/10 06:49:59;;;;;;;196.00;72.50;;;;;;;6.12;57.06;99357.28;5085821;28;20464;-73
2021/12/10 06:52:26;;;;;;;215.75;73.57;;;;;;;5.84;57.87;99358.09;5074634;28;20082;-72
2021/12/10 08:05:42;;;;;;;218.38;74.90;;;;;;;6.74;55.95;99310.09;4574518;28;1132320;-74
2021/12/10 08:08:09;;;;;;;216.38;74.30;;;;;;;6.78;56.19;99302.72;5075045;28;20083;-74
2021/12/10 08:10:38;;;;;;;207.38;73.32;;;;;;;6.49;56.80;99297.50;5073662;28;20060;-75
2021/12/10 08:13:06;;;;;;;221.85;74.32;;;;;;;6.73;56.49;99292.56;5073098;28;20425;-74
2021/12/10 08:15:34;;;;;;;214.50;74.18;;;;;;;6.62;56.79;99295.38;5075414;28;20434;-74
2021/12/10 08:18:02;;;;;;;219.30;76.32;;;;;;;6.81;56.19;99286.53;5074826;28;20435;-74
2021/12/10 08:20:29;;;;;;;212.57;74.45;;;;;;;6.87;55.46;99286.78;5074561;28;20456;-74
2021/12/10 08:22:56;;;;;;;213.85;74.88;;;;;;;6.78;55.47;99287.66;5074376;28;20048;-74
2021/12/10 08:25:25;;;;;;;200.60;70.78;;;;;;;6.25;57.18;99282.94;5074424;28;20075;-74
2021/12/10 08:27:55;;;;;;;201.68;73.03;;;;;;;6.73;55.93;99281.97;5090465;28;20127;-74
2021/12/10 08:30:24;;;;;;;216.27;75.53;;;;;;;6.79;55.62;99273.44;5093893;28;20094;-74
2021/12/10 08:32:54;;;;;;;212.05;74.63;;;;;;;6.85;55.87;99278.13;5093962;28;20064;-74
2021/12/10 08:35:24;;;;;;;210.23;75.45;;;;;;;6.79;56.15;99264.63;5093022;28;20071;-74
2021/12/10 08:37:52;;;;;;;217.52;75.03;;;;;;;6.85;56.24;99270.19;5095184;28;20060;-74
2021/12/10 08:40:23;;;;;;;220.23;76.90;;;;;;;6.71;56.06;99260.09;5091868;28;20063;-75
2021/12/10 08:42:50;;;;;;;216.30;75.80;;;;;;;6.52;56.84;99263.66;5092378;28;20043;-74
2021/12/10 08:45:19;;;;;;;217.20;75.72;;;;;;;6.33;57.42;99261.03;5094191;28;20293;-75
2021/12/10 08:47:47;;;;;;;211.95;75.00;;;;;;;6.82;56.09;99259.06;5092057;28;20067;-74
2021/12/10 08:50:17;;;;;;;245.68;80.95;;;;;;;6.84;56.20;99255.28;5092512;28;20296;-73
2021/12/10 08:52:44;;;;;;;220.27;75.60;;;;;;;6.46;57.21;99260.72;5091897;28;20048;-73
2021/12/10 08:55:11;;;;;;;219.40;78.85;;;;;;;6.95;55.98;99253.44;5092144;28;20082;-75
2021/12/10 08:57:38;;;;;;;219.93;76.13;;;;;;;6.73;56.51;99247.53;5092773;28;20451;-74
2021/12/10 09:00:07;;;;;;;215.40;75.97;;;;;;;6.96;55.92;99252.44;5093960;28;20555;-74
2021/12/10 09:02:36;;;;;;;209.25;76.05;;;;;;;6.64;56.35;99253.69;5096091;28;20044;-74
2021/12/10 09:05:02;;;;;;;212.93;75.70;;;;;;;6.88;56.11;99251.38;5094177;28;20126;-74
2021/12/10 09:07:29;;;;;;;210.68;74.32;;;;;;;6.68;56.58;99244.47;5081584;28;20456;-74
2021/12/10 09:09:55;;;;;;;210.88;74.47;;;;;;;6.89;56.51;99247.75;5090036;28;20052;-74
2021/12/10 09:12:25;;;;;;;217.63;76.03;;;;;;;6.78;56.23;99245.28;5071951;28;20051;-75
2021/12/10 09:14:54;;;;;;;210.48;72.35;;;;;;;6.00;58.73;99249.13;5074547;28;20044;-74
2021/12/10 09:17:25;;;;;;;197.65;71.15;;;;;;;5.53;59.91;99239.22;5072471;28;20041;-75
2021/12/10 09:19:57;;;;;;;198.95;69.22;;;;;;;6.16;58.56;99238.78;5089823;28;20044;-75
2021/12/10 09:22:25;;;;;;;217.75;75.60;;;;;;;6.49;57.85;99236.63;5092538;28;20052;-75
2021/12/10 09:24:54;;;;;;;204.38;72.75;;;;;;;6.78;56.25;99241.78;5072375;28;20068;-75
2021/12/10 09:27:22;;;;;;;219.68;76.15;;;;;;;6.76;56.91;99236.66;5072987;28;20488;-75
2021/12/10 09:29:52;;;;;;;200.10;73.25;;;;;;;6.25;58.08;99245.06;5073473;28;20472;-75
2021/12/10 09:32:24;;;;;;;213.95;75.00;;;;;;;6.61;57.11;99240.75;5086354;28;20090;-75
2021/12/10 09:34:52;;;;;;;198.75;71.38;;;;;;;6.86;56.92;99237.44;5094524;28;20499;-75
2021/12/10 09:37:21;;;;;;;210.05;76.28;;;;;;;6.63;57.07;99236.16;5089589;28;20086;-75
2021/12/10 09:39:49;;;;;;;208.15;73.95;;;;;;;6.66;57.49;99234.03;5076203;28;20131;-76
2021/12/10 09:42:19;;;;;;;223.68;76.43;;;;;;;6.73;56.67;99244.91;5094567;28;20127;-75
2021/12/10 09:44:47;;;;;;;213.00;74.03;;;;;;;6.69;57.24;99235.56;5078126;28;20071;-76
2021/12/10 09:47:15;;;;;;;200.70;71.88;;;;;;;6.85;56.81;99241.06;5057127;28;20426;-75
2021/12/10 09:49:46;;;;;;;214.25;73.53;;;;;;;6.80;56.86;99248.63;5095757;28;20040;-77
2021/12/10 09:52:16;;;;;;;211.20;71.93;;;;;;;6.58;57.05;99238.38;5103190;28;20070;-77
2021/12/10 09:54:44;;;;;;;200.05;72.43;;;;;;;6.16;58.29;99244.09;5099312;28;20415;-77
2021/12/10 09:57:21;;;;;;;211.07;75.43;;;;;;;6.77;57.12;99237.50;5088024;28;20446;-77
2021/12/10 10:00:01;;;;;;;197.57;70.45;;;;;;;6.61;56.43;99230.16;5080335;28;20044;-77
2021/12/10 10:02:29;;;;;;;204.20;73.43;;;;;;;6.00;58.18;99239.38;5079559;28;20044;-76
2021/12/10 10:04:56;;;;;;;181.45;68.45;;;;;;;6.00;58.39;99239.38;5079507;28;20044;-77
2021/12/10 10:07:27;;;;;;;177.32;67.45;;;;;;;6.35;58.75;99243.22;5098183;28;20044;-77
2021/12/10 10:09:59;;;;;;;198.70;70.95;;;;;;;6.63;57.21;99238.81;5099405;28;20530;-77
2021/12/10 10:12:31;;;;;;;186.05;69.38;;;;;;;5.79;58.87;99239.53;5101255;28;20047;-77
2021/12/10 10:15:00;;;;;;;210.80;70.47;;;;;;;5.03;60.58;99251.69;5101131;28;20101;-77
2021/12/10 10:17:48;;;;;;;203.65;69.60;;;;;;;5.72;60.23;99233.97;5101889;28;20044;-77
2021/12/10 10:20:17;;;;;;;206.98;72.18;;;;;;;6.31;57.46;99236.56;5101477;28;20126;-77
2021/12/10 10:22:44;;;;;;;204.57;68.18;;;;;;;5.83;59.27;99232.97;5101367;28;20101;-79
2021/12/10 10:25:12;;;;;;;204.10;71.70;;;;;;;6.33;57.88;99224.00;5100538;28;20043;-78
2021/12/10 10:27:40;;;;;;;210.70;74.28;;;;;;;6.78;56.87;99218.78;5100889;28;20472;-78
2021/12/10 10:30:28;;;;;;;210.32;72.88;;;;;;;7.17;55.74;99217.72;5100369;28;20074;-78
2021/12/10 10:32:57;;;;;;;212.15;73.63;;;;;;;7.08;56.54;99207.06;5080842;28;20071;-78
2021/12/10 10:35:29;;;;;;;211.50;72.22;;;;;;;6.95;56.37;99217.19;5100340;28;20067;-78
2021/12/10 10:37:57;;;;;;;186.50;66.72;;;;;;;5.15;60.58;99218.88;5099488;28;20059;-77
2021/12/10 10:40:31;;;;;;;193.30;67.93;;;;;;;5.49;60.16;99216.69;5099939;28;20044;-78
2021/12/10 10:42:58;;;;;;;188.48;64.50;;;;;;;5.15;60.70;99218.88;5099810;28;20051;-78
2021/12/10 10:45:28;;;;;;;215.30;72.93;;;;;;;5.80;59.74;99219.19;5096685;28;20081;-77
2021/12/10 10:47:57;;;;;;;216.25;71.88;;;;;;;6.09;59.59;99212.06;5099998;28;20043;-77
2021/12/10 10:50:58;;;;;;;201.43;70.07;;;;;;;5.93;59.71;99207.38;5100161;28;20098;-77
2021/12/10 10:53:31;;;;;;;212.57;71.45;;;;;;;6.01;60.11;99211.13;5099443;28;20052;-77
2021/12/10 10:56:12;;;;;;;201.13;69.63;;;;;;;6.05;59.45;99209.84;5098143;28;20079;-77
2021/12/10 10:58:49;;;;;;;206.35;72.32;;;;;;;6.29;59.11;99198.78;5098312;28;20044;-77
2021/12/10 11:01:25;;;;;;;213.70;70.60;;;;;;;5.99;59.12;99205.13;5094194;28;20082;-78
2021/12/10 11:04:09;;;;;;;207.55;70.28;;;;;;;6.08;58.71;99207.75;5090532;28;20126;-77
2021/12/10 11:06:41;;;;;;;208.20;69.72;;;;;;;5.78;60.95;99203.47;5097724;28;20052;-78
2021/12/10 11:09:21;;;;;;;212.68;71.95;;;;;;;6.49;58.22;99204.88;5103683;28;20055;-79
2021/12/10 11:11:57;;;;;;;198.02;66.13;;;;;;;5.62;60.72;99204.03;5079484;28;20115;-78
2021/12/10 11:14:36;;;;;;;220.00;70.00;;;;;;;6.52;57.92;99210.69;5084877;28;20052;-78
2021/12/10 11:17:09;;;;;;;214.77;70.97;;;;;;;6.89;58.06;99210.66;5085209;28;20052;-78
2021/12/10 11:20:00;;;;;;;205.75;68.15;;;;;;;6.11;59.42;99198.72;5060567;28;20048;-78
2021/12/10 11:22:28;;;;;;;215.70;64.43;;;;;;;5.41;62.76;99203.34;5088805;28;20044;-76
2021/12/10 11:25:14;;;;;;;203.65;66.40;;;;;;;6.43;59.21;99193.03;5094746;28;20074;-77
2021/12/10 11:27:43;;;;;;;200.18;65.43;;;;;;;6.27;59.84;99208.69;5098945;28;20117;-78
2021/12/10 11:30:15;;;;;;;207.23;65.30;;;;;;;6.84;58.53;99198.84;5097776;28;20048;-76
2021/12/10 11:32:54;;;;;;;188.05;62.05;;;;;;;7.01;57.81;99200.69;5098234;28;20059;-76
2021/12/10 11:35:30;;;;;;;190.65;63.08;;;;;;;7.22;57.25;99200.41;5098432;28;20044;-76
2021/12/10 11:38:04;;;;;;;194.23;63.20;;;;;;;7.27;56.76;99198.13;5099771;28;20044;-76
2021/12/10 11:40:49;;;;;;;179.30;62.28;;;;;;;7.12;57.57;99194.34;5097140;28;20070;-76
2021/12/10 11:48:38;;;;;;;182.98;61.53;;;;;;;6.89;57.78;99183.31;5098083;28;20552;-75
2021/12/10 11:51:16;;;;;;;184.52;61.45;;;;;;;7.20;57.04;99178.53;5096256;28;20044;-75
2021/12/10 11:53:49;;;;;;;184.55;61.47;;;;;;;6.98;57.97;99185.09;5098331;28;20445;-76
2021/12/10 11:56:21;;;;;;;193.43;64.68;;;;;;;5.98;60.48;99182.31;5097702;28;20439;-76
2021/12/10 11:59:19;;;;;;;184.63;61.20;;;;;;;6.72;58.31;99181.47;5097846;28;20403;-76
2021/12/10 12:01:57;;;;;;;191.98;64.07;;;;;;;6.70;58.98;99173.69;5088937;28;20939;-76
2021/12/10 12:04:31;;;;;;;188.20;62.35;;;;;;;7.07;57.67;99170.97;5085733;28;20136;-76
2021/12/10 12:07:29;;;;;;;187.40;61.15;;;;;;;6.27;59.80;99175.13;5097033;28;20119;-76
2021/12/10 12:10:21;;;;;;;176.95;57.95;;;;;;;6.66;58.71;99169.66;5098247;28;20036;-76
2021/12/10 12:13:35;;;;;;;187.48;61.00;;;;;;;6.37;59.58;99170.66;5087422;28;20074;-76
2021/12/10 12:16:16;;;;;;;185.13;57.85;;;;;;;6.66;58.59;99172.31;5093929;28;20055;-76
2021/12/10 12:18:50;;;;;;;182.25;58.88;;;;;;;6.24;60.64;99164.84;5081979;28;20044;-76
2021/12/10 12:27:06;;;;;;;187.75;57.92;;;;;;;7.24;57.61;99168.44;5090849;28;20119;-76
2021/12/10 12:30:02;;;;;;;176.30;58.47;;;;;;;6.77;58.55;99163.34;5078842;28;20123;-76
2021/12/10 12:32:38;;;;;;;186.40;59.00;;;;;;;6.80;58.54;99163.88;5071619;28;20056;-76
2021/12/10 12:35:37;;;;;;;184.00;57.92;;;;;;;6.24;60.36;99161.38;5072918;28;20075;-76
2021/12/10 12:38:13;;;;;;;172.15;56.33;;;;;;;6.19;60.41;99159.97;5030651;28;20084;-76
2021/12/10 12:41:08;;;;;;;181.75;55.78;;;;;;;6.37;59.99;99162.72;5096711;28;20044;-75
2021/12/10 12:43:37;;;;;;;190.68;57.33;;;;;;;7.07;58.05;99159.53;5097530;28;20054;-75
2021/12/10 12:46:22;;;;;;;185.00;57.55;;;;;;;6.66;59.63;99161.72;5099815;28;20044;-76
2021/12/10 12:48:59;;;;;;;203.40;60.40;;;;;;;6.92;58.70;99161.84;5099591;28;20066;-76
2021/12/10 12:51:30;;;;;;;189.02;58.80;;;;;;;6.27;60.64;99153.97;5099342;28;20071;-75
2021/12/10 12:53:57;;;;;;;185.93;60.60;;;;;;;6.54;60.19;99145.19;5100415;28;20545;-76
2021/12/10 12:56:31;;;;;;;195.20;59.05;;;;;;;6.53;60.12;99135.59;5095268;28;20466;-75
2021/12/10 12:59:18;;;;;;;190.02;58.95;;;;;;;7.13;57.83;99143.00;5079275;28;20079;-76
2021/12/10 13:01:48;;;;;;;179.52;61.70;;;;;;;7.07;58.15;99138.34;5076844;28;20507;-76
2021/12/10 13:04:25;;;;;;;182.88;59.17;;;;;;;7.53;57.15;99134.59;5077257;28;20053;-75
2021/12/10 13:07:15;;;;;;;195.65;61.22;;;;;;;7.13;57.38;99132.41;5092383;28;20040;-76
2021/12/10 13:09:52;;;;;;;183.85;57.63;;;;;;;7.14;57.91;99134.09;5098038;28;20055;-75